Otho, IA (50569)

06:34 AM CDT am 24. Mai 2017 (GMT -0500)
Savage Addition | | Change Station

Höhe 1155 ft 42.46 °N, 94.20 °W | Updated 18 seconds ago

Wolkig
Wolkig
48.5 °F
gefühlte 47 °F
N
4.0
Wind Wechselnd Wind aus Nord

Heute
Max. -- | schwach -- °F
--% Regenrisiko
Gestern
Max. -- | schwach -- °F
Precip. -- inch
Druck 29.73 inch
Sichtweite 10.0 Meilen
Wolken Wolkig 4400 ft
Windchill 47 °F
Taupunkt 47 °F
Feuchtigkeit 96%
Regen 0.04 inch
Schneehöhe Nicht verfügbar..
5:46 AM 8:40 PM
Letztes Viertel, 3% visible
METAR KFOD 241115Z AUTO 35004KT 10SM BKN044 09/07 A2973 RMK AO1
Druck 29.73 inch
Sichtweite 10.0 Meilen
Wolken Wolkig 4400 ft
Windchill 47 °F
Taupunkt 47 °F
Feuchtigkeit 96%
Regen 0.04 inch
Schneehöhe Nicht verfügbar..
5:46 AM 8:40 PM
Letztes Viertel, 3% visible
METAR KFOD 241115Z AUTO 35004KT 10SM BKN044 09/07 A2973 RMK AO1

Get Severe Weather Alerts

Thanks for signing up!

Be on the lookout for a verification email in your inbox.

You'll start receiving the daily forecast at 6 AM.

×

10-Day Weather Forecast

Almanac

Astronomie

May. 24, 2017 Aufgang Untergang
Genaue Zeit
Bürgerliche Dämmerung
Nautische Dämmerung
Astronomische Dämmerung
Mond
Länge des sichtbaren Lichts
Tageslänge
Tomorrow will be .
, % of the Moon is Illuminated

Heutige Rekorde

State Highs State Lows

Community

WunderPhotos

Category 6

Welcome to Category 6. This is the collective home for Weather Underground's featured writeups by Dr. Jeff Masters (right), Bob Henson (left), Chris Burt, and other regular contributors.

Nearby

Luftqualität

  Luftqualität LQ Index Schadstoff
Not available.

Schneehöhe

Station Depth Höhe

Erdbebenaktivität

Stadt Distance Mag. Time & Date
Minimum magnitude displayed is 2.5.

küstennahe Wassertemperaturen

Ort Temperatur

Stations

Wetterstationen in der Umgebung

Stationsstandort Temp. Windchill Taupunkt Feuchtigkeit Wind Precip. Höhe Aktualisiert Art
                   

Watches & Warnings

There are currently no watches in effect.